sensor_id;sensor_type;location;lat;lon;timestamp;P1;durP1;ratioP1;P2;durP2;ratioP2
3726;SDS011;1879;45.876;12.300;2022-08-11T00:02:22;2.97;;;2.20;;
3726;SDS011;1879;45.876;12.300;2022-08-11T00:05:00;3.30;;;2.20;;
3726;SDS011;1879;45.876;12.300;2022-08-11T00:07:33;2.27;;;1.97;;
3726;SDS011;1879;45.876;12.300;2022-08-11T00:10:08;5.90;;;2.20;;
3726;SDS011;1879;45.876;12.300;2022-08-11T00:12:37;4.20;;;2.17;;
3726;SDS011;1879;45.876;12.300;2022-08-11T00:15:08;2.50;;;2.20;;
3726;SDS011;1879;45.876;12.300;2022-08-11T00:17:38;4.77;;;2.40;;
3726;SDS011;1879;45.876;12.300;2022-08-11T00:20:06;3.93;;;2.60;;
3726;SDS011;1879;45.876;12.300;2022-08-11T00:22:37;3.53;;;2.40;;
3726;SDS011;1879;45.876;12.300;2022-08-11T00:25:09;10.33;;;3.20;;
3726;SDS011;1879;45.876;12.300;2022-08-11T00:27:37;5.30;;;2.53;;
3726;SDS011;1879;45.876;12.300;2022-08-11T00:30:06;2.67;;;2.40;;
3726;SDS011;1879;45.876;12.300;2022-08-11T00:32:36;2.77;;;2.57;;
3726;SDS011;1879;45.876;12.300;2022-08-11T00:35:06;2.57;;;2.37;;
3726;SDS011;1879;45.876;12.300;2022-08-11T00:37:43;2.90;;;2.70;;
3726;SDS011;1879;45.876;12.300;2022-08-11T00:40:14;2.60;;;2.40;;
3726;SDS011;1879;45.876;12.300;2022-08-11T00:42:51;2.43;;;2.20;;
3726;SDS011;1879;45.876;12.300;2022-08-11T00:45:26;2.87;;;2.57;;
3726;SDS011;1879;45.876;12.300;2022-08-11T00:48:01;2.60;;;2.40;;
3726;SDS011;1879;45.876;12.300;2022-08-11T00:50:43;2.80;;;2.60;;
3726;SDS011;1879;45.876;12.300;2022-08-11T00:53:24;3.20;;;2.30;;
3726;SDS011;1879;45.876;12.300;2022-08-11T01:02:21;2.77;;;2.57;;
3726;SDS011;1879;45.876;12.300;2022-08-11T01:11:43;2.53;;;2.30;;
3726;SDS011;1879;45.876;12.300;2022-08-11T01:17:54;2.27;;;2.07;;
3726;SDS011;1879;45.876;12.300;2022-08-11T01:27:09;5.43;;;2.40;;
3726;SDS011;1879;45.876;12.300;2022-08-11T01:39:12;2.73;;;2.53;;
3726;SDS011;1879;45.876;12.300;2022-08-11T01:42:00;2.67;;;2.30;;
3726;SDS011;1879;45.876;12.300;2022-08-11T01:45:20;2.40;;;2.20;;
3726;SDS011;1879;45.876;12.300;2022-08-11T01:47:59;2.60;;;2.20;;
3726;SDS011;1879;45.876;12.300;2022-08-11T01:50:39;3.80;;;2.40;;
3726;SDS011;1879;45.876;12.300;2022-08-11T01:53:27;3.50;;;2.30;;
3726;SDS011;1879;45.876;12.300;2022-08-11T01:56:04;2.40;;;2.20;;
3726;SDS011;1879;45.876;12.300;2022-08-11T01:58:42;2.87;;;2.50;;
3726;SDS011;1879;45.876;12.300;2022-08-11T02:01:31;2.93;;;2.00;;
3726;SDS011;1879;45.876;12.300;2022-08-11T02:04:08;3.03;;;2.50;;
3726;SDS011;1879;45.876;12.300;2022-08-11T02:06:46;3.00;;;2.47;;
3726;SDS011;1879;45.876;12.300;2022-08-11T02:09:28;2.53;;;2.33;;
3726;SDS011;1879;45.876;12.300;2022-08-11T02:12:09;3.83;;;2.03;;
3726;SDS011;1879;45.876;12.300;2022-08-11T02:14:41;2.60;;;2.40;;
3726;SDS011;1879;45.876;12.300;2022-08-11T02:17:16;2.70;;;2.50;;
3726;SDS011;1879;45.876;12.300;2022-08-11T02:19:48;2.43;;;2.20;;
3726;SDS011;1879;45.876;12.300;2022-08-11T02:22:45;2.50;;;2.30;;
3726;SDS011;1879;45.876;12.300;2022-08-11T02:25:37;3.17;;;2.40;;
3726;SDS011;1879;45.876;12.300;2022-08-11T02:28:09;2.87;;;2.10;;
3726;SDS011;1879;45.876;12.300;2022-08-11T02:30:52;2.90;;;2.40;;
3726;SDS011;1879;45.876;12.300;2022-08-11T02:33:41;6.13;;;3.37;;
3726;SDS011;1879;45.876;12.300;2022-08-11T02:36:11;3.93;;;2.50;;
3726;SDS011;1879;45.876;12.300;2022-08-11T02:38:46;2.50;;;2.10;;
3726;SDS011;1879;45.876;12.300;2022-08-11T02:41:22;4.23;;;2.13;;
3726;SDS011;1879;45.876;12.300;2022-08-11T02:44:15;11.43;;;2.30;;
3726;SDS011;1879;45.876;12.300;2022-08-11T02:46:55;2.73;;;2.50;;
3726;SDS011;1879;45.876;12.300;2022-08-11T02:52:23;2.30;;;2.10;;
3726;SDS011;1879;45.876;12.300;2022-08-11T02:55:09;2.43;;;2.10;;
3726;SDS011;1879;45.876;12.300;2022-08-11T02:57:48;2.67;;;2.00;;
3726;SDS011;1879;45.876;12.300;2022-08-11T03:00:20;3.30;;;2.00;;
3726;SDS011;1879;45.876;12.300;2022-08-11T03:02:49;2.43;;;2.23;;
3726;SDS011;1879;45.876;12.300;2022-08-11T03:05:31;3.27;;;2.10;;
3726;SDS011;1879;45.876;12.300;2022-08-11T03:08:16;2.07;;;1.90;;
3726;SDS011;1879;45.876;12.300;2022-08-11T03:11:06;2.60;;;2.20;;
3726;SDS011;1879;45.876;12.300;2022-08-11T03:14:08;3.30;;;2.07;;
3726;SDS011;1879;45.876;12.300;2022-08-11T03:17:00;2.50;;;2.30;;
3726;SDS011;1879;45.876;12.300;2022-08-11T03:19:39;3.93;;;2.40;;
3726;SDS011;1879;45.876;12.300;2022-08-11T03:22:16;2.27;;;1.90;;
3726;SDS011;1879;45.876;12.300;2022-08-11T03:24:56;2.77;;;2.57;;
3726;SDS011;1879;45.876;12.300;2022-08-11T03:27:35;2.13;;;1.93;;
3726;SDS011;1879;45.876;12.300;2022-08-11T03:30:13;3.00;;;2.00;;
3726;SDS011;1879;45.876;12.300;2022-08-11T03:32:50;3.70;;;1.80;;
3726;SDS011;1879;45.876;12.300;2022-08-11T03:36:03;2.50;;;2.10;;
3726;SDS011;1879;45.876;12.300;2022-08-11T03:38:41;3.90;;;2.17;;
3726;SDS011;1879;45.876;12.300;2022-08-11T03:41:19;2.97;;;2.00;;
3726;SDS011;1879;45.876;12.300;2022-08-11T03:44:11;2.57;;;2.07;;
3726;SDS011;1879;45.876;12.300;2022-08-11T03:47:05;2.70;;;2.00;;
3726;SDS011;1879;45.876;12.300;2022-08-11T03:49:53;2.00;;;1.80;;
3726;SDS011;1879;45.876;12.300;2022-08-11T03:52:47;3.33;;;1.93;;
3726;SDS011;1879;45.876;12.300;2022-08-11T03:55:22;2.63;;;1.90;;
3726;SDS011;1879;45.876;12.300;2022-08-11T04:04:46;1.60;;;1.50;;
3726;SDS011;1879;45.876;12.300;2022-08-11T04:07:40;2.13;;;1.83;;
3726;SDS011;1879;45.876;12.300;2022-08-11T04:13:48;2.33;;;2.10;;
3726;SDS011;1879;45.876;12.300;2022-08-11T04:17:00;3.57;;;2.30;;
3726;SDS011;1879;45.876;12.300;2022-08-11T04:19:58;4.70;;;2.20;;
3726;SDS011;1879;45.876;12.300;2022-08-11T04:22:55;2.90;;;1.93;;
3726;SDS011;1879;45.876;12.300;2022-08-11T04:25:50;6.20;;;2.00;;
3726;SDS011;1879;45.876;12.300;2022-08-11T04:28:41;2.77;;;2.20;;
3726;SDS011;1879;45.876;12.300;2022-08-11T04:37:34;3.60;;;2.00;;
3726;SDS011;1879;45.876;12.300;2022-08-11T04:50:14;2.63;;;2.10;;
3726;SDS011;1879;45.876;12.300;2022-08-11T04:53:17;4.70;;;2.10;;
3726;SDS011;1879;45.876;12.300;2022-08-11T04:56:19;2.43;;;1.90;;
3726;SDS011;1879;45.876;12.300;2022-08-11T05:02:54;2.30;;;1.97;;
3726;SDS011;1879;45.876;12.300;2022-08-11T05:09:04;2.77;;;2.13;;
3726;SDS011;1879;45.876;12.300;2022-08-11T05:14:32;2.77;;;2.23;;
3726;SDS011;1879;45.876;12.300;2022-08-11T05:17:22;2.10;;;1.90;;
3726;SDS011;1879;45.876;12.300;2022-08-11T05:20:13;2.23;;;1.80;;
3726;SDS011;1879;45.876;12.300;2022-08-11T05:23:00;4.60;;;1.90;;
3726;SDS011;1879;45.876;12.300;2022-08-11T05:25:51;4.87;;;1.97;;
3726;SDS011;1879;45.876;12.300;2022-08-11T05:28:41;6.23;;;2.67;;
3726;SDS011;1879;45.876;12.300;2022-08-11T05:31:35;9.80;;;4.60;;
3726;SDS011;1879;45.876;12.300;2022-08-11T05:34:22;4.87;;;2.13;;
3726;SDS011;1879;45.876;12.300;2022-08-11T05:37:10;2.93;;;2.27;;
3726;SDS011;1879;45.876;12.300;2022-08-11T05:39:40;2.47;;;1.87;;
3726;SDS011;1879;45.876;12.300;2022-08-11T05:42:30;2.00;;;1.70;;
3726;SDS011;1879;45.876;12.300;2022-08-11T05:45:17;2.33;;;2.13;;
3726;SDS011;1879;45.876;12.300;2022-08-11T05:48:02;2.50;;;1.90;;
3726;SDS011;1879;45.876;12.300;2022-08-11T05:50:51;2.90;;;2.10;;
3726;SDS011;1879;45.876;12.300;2022-08-11T05:53:47;2.57;;;2.00;;
3726;SDS011;1879;45.876;12.300;2022-08-11T05:56:41;2.60;;;2.10;;
3726;SDS011;1879;45.876;12.300;2022-08-11T05:59:15;2.07;;;1.70;;
3726;SDS011;1879;45.876;12.300;2022-08-11T06:01:43;2.20;;;1.87;;
3726;SDS011;1879;45.876;12.300;2022-08-11T06:04:15;2.30;;;2.10;;
3726;SDS011;1879;45.876;12.300;2022-08-11T06:06:46;2.63;;;2.03;;
3726;SDS011;1879;45.876;12.300;2022-08-11T06:09:19;2.37;;;1.87;;
3726;SDS011;1879;45.876;12.300;2022-08-11T06:11:51;3.30;;;2.17;;
3726;SDS011;1879;45.876;12.300;2022-08-11T06:14:22;2.57;;;2.00;;
3726;SDS011;1879;45.876;12.300;2022-08-11T06:16:50;2.37;;;1.70;;
3726;SDS011;1879;45.876;12.300;2022-08-11T06:19:28;3.23;;;1.90;;
3726;SDS011;1879;45.876;12.300;2022-08-11T06:21:58;2.50;;;1.80;;
3726;SDS011;1879;45.876;12.300;2022-08-11T06:24:27;4.60;;;1.90;;
3726;SDS011;1879;45.876;12.300;2022-08-11T06:26:56;5.60;;;2.60;;
3726;SDS011;1879;45.876;12.300;2022-08-11T06:29:26;2.30;;;1.93;;
3726;SDS011;1879;45.876;12.300;2022-08-11T06:31:55;4.17;;;2.03;;
3726;SDS011;1879;45.876;12.300;2022-08-11T06:34:32;2.57;;;1.93;;
3726;SDS011;1879;45.876;12.300;2022-08-11T06:37:17;2.83;;;2.07;;
3726;SDS011;1879;45.876;12.300;2022-08-11T06:39:56;2.50;;;2.27;;
3726;SDS011;1879;45.876;12.300;2022-08-11T06:42:35;3.03;;;2.13;;
3726;SDS011;1879;45.876;12.300;2022-08-11T06:45:25;2.10;;;1.90;;
3726;SDS011;1879;45.876;12.300;2022-08-11T06:47:58;4.43;;;1.90;;
3726;SDS011;1879;45.876;12.300;2022-08-11T06:50:27;4.97;;;2.10;;
3726;SDS011;1879;45.876;12.300;2022-08-11T06:53:14;2.20;;;1.87;;
3726;SDS011;1879;45.876;12.300;2022-08-11T06:55:44;2.00;;;1.90;;
3726;SDS011;1879;45.876;12.300;2022-08-11T06:58:32;2.00;;;1.80;;
3726;SDS011;1879;45.876;12.300;2022-08-11T07:01:21;2.33;;;1.90;;
3726;SDS011;1879;45.876;12.300;2022-08-11T07:04:04;1.73;;;1.63;;
3726;SDS011;1879;45.876;12.300;2022-08-11T07:06:38;3.57;;;1.80;;
3726;SDS011;1879;45.876;12.300;2022-08-11T07:09:32;2.60;;;2.40;;
3726;SDS011;1879;45.876;12.300;2022-08-11T07:12:44;7.43;;;2.47;;
3726;SDS011;1879;45.876;12.300;2022-08-11T07:15:34;2.27;;;2.07;;
3726;SDS011;1879;45.876;12.300;2022-08-11T07:18:14;1.90;;;1.80;;
3726;SDS011;1879;45.876;12.300;2022-08-11T07:21:09;2.13;;;1.87;;
3726;SDS011;1879;45.876;12.300;2022-08-11T07:23:57;2.80;;;2.10;;
3726;SDS011;1879;45.876;12.300;2022-08-11T07:26:45;2.77;;;2.33;;
3726;SDS011;1879;45.876;12.300;2022-08-11T07:29:34;2.90;;;2.17;;
3726;SDS011;1879;45.876;12.300;2022-08-11T07:32:07;2.60;;;2.17;;
3726;SDS011;1879;45.876;12.300;2022-08-11T07:34:44;2.87;;;1.80;;
3726;SDS011;1879;45.876;12.300;2022-08-11T07:37:18;2.50;;;1.80;;
3726;SDS011;1879;45.876;12.300;2022-08-11T07:39:48;6.00;;;2.23;;
3726;SDS011;1879;45.876;12.300;2022-08-11T07:42:19;2.50;;;2.30;;
3726;SDS011;1879;45.876;12.300;2022-08-11T07:44:48;2.73;;;2.13;;
3726;SDS011;1879;45.876;12.300;2022-08-11T07:47:35;2.80;;;2.03;;
3726;SDS011;1879;45.876;12.300;2022-08-11T07:50:22;5.33;;;2.70;;
3726;SDS011;1879;45.876;12.300;2022-08-11T07:53:06;2.20;;;2.00;;
3726;SDS011;1879;45.876;12.300;2022-08-11T07:55:34;3.20;;;2.40;;
3726;SDS011;1879;45.876;12.300;2022-08-11T07:58:02;2.40;;;2.20;;
3726;SDS011;1879;45.876;12.300;2022-08-11T08:00:48;3.13;;;1.90;;
3726;SDS011;1879;45.876;12.300;2022-08-11T08:03:34;2.50;;;2.00;;
3726;SDS011;1879;45.876;12.300;2022-08-11T08:06:21;3.27;;;2.40;;
3726;SDS011;1879;45.876;12.300;2022-08-11T08:09:06;3.63;;;2.00;;
3726;SDS011;1879;45.876;12.300;2022-08-11T08:11:52;2.50;;;2.13;;
3726;SDS011;1879;45.876;12.300;2022-08-11T08:14:37;4.10;;;2.07;;
3726;SDS011;1879;45.876;12.300;2022-08-11T08:17:21;2.43;;;2.00;;
3726;SDS011;1879;45.876;12.300;2022-08-11T08:20:07;2.07;;;1.87;;
3726;SDS011;1879;45.876;12.300;2022-08-11T08:22:39;3.33;;;2.10;;
3726;SDS011;1879;45.876;12.300;2022-08-11T08:25:06;7.43;;;2.00;;
3726;SDS011;1879;45.876;12.300;2022-08-11T08:27:35;3.80;;;1.70;;
3726;SDS011;1879;45.876;12.300;2022-08-11T08:30:04;2.20;;;1.70;;
3726;SDS011;1879;45.876;12.300;2022-08-11T08:32:49;2.30;;;2.10;;
3726;SDS011;1879;45.876;12.300;2022-08-11T08:35:18;1.70;;;1.60;;
3726;SDS011;1879;45.876;12.300;2022-08-11T08:37:47;4.30;;;1.80;;
3726;SDS011;1879;45.876;12.300;2022-08-11T08:40:15;3.40;;;1.67;;
3726;SDS011;1879;45.876;12.300;2022-08-11T08:42:45;2.63;;;1.80;;
3726;SDS011;1879;45.876;12.300;2022-08-11T08:45:16;2.60;;;1.63;;
3726;SDS011;1879;45.876;12.300;2022-08-11T08:47:46;2.00;;;1.80;;
3726;SDS011;1879;45.876;12.300;2022-08-11T08:50:19;1.93;;;1.50;;
3726;SDS011;1879;45.876;12.300;2022-08-11T08:52:51;3.70;;;1.87;;
3726;SDS011;1879;45.876;12.300;2022-08-11T08:55:21;1.83;;;1.30;;
3726;SDS011;1879;45.876;12.300;2022-08-11T09:00:23;2.40;;;2.20;;
3726;SDS011;1879;45.876;12.300;2022-08-11T09:03:02;1.80;;;1.70;;
3726;SDS011;1879;45.876;12.300;2022-08-11T09:05:29;3.30;;;2.10;;
3726;SDS011;1879;45.876;12.300;2022-08-11T09:07:58;5.97;;;2.20;;
3726;SDS011;1879;45.876;12.300;2022-08-11T09:10:25;2.63;;;1.83;;
3726;SDS011;1879;45.876;12.300;2022-08-11T09:12:55;2.33;;;1.57;;
3726;SDS011;1879;45.876;12.300;2022-08-11T09:15:24;3.53;;;2.07;;
3726;SDS011;1879;45.876;12.300;2022-08-11T09:17:53;5.90;;;1.77;;
3726;SDS011;1879;45.876;12.300;2022-08-11T09:20:27;2.07;;;1.40;;
3726;SDS011;1879;45.876;12.300;2022-08-11T09:23:00;2.10;;;1.67;;
3726;SDS011;1879;45.876;12.300;2022-08-11T09:25:47;3.80;;;1.20;;
3726;SDS011;1879;45.876;12.300;2022-08-11T09:28:33;3.73;;;1.37;;
3726;SDS011;1879;45.876;12.300;2022-08-11T09:31:01;6.07;;;1.80;;
3726;SDS011;1879;45.876;12.300;2022-08-11T09:33:28;3.17;;;1.83;;
3726;SDS011;1879;45.876;12.300;2022-08-11T09:35:56;5.90;;;1.60;;
3726;SDS011;1879;45.876;12.300;2022-08-11T09:38:50;2.10;;;1.90;;
3726;SDS011;1879;45.876;12.300;2022-08-11T09:41:36;3.73;;;1.80;;
3726;SDS011;1879;45.876;12.300;2022-08-11T09:44:06;3.13;;;1.60;;
3726;SDS011;1879;45.876;12.300;2022-08-11T09:46:51;1.70;;;1.60;;
3726;SDS011;1879;45.876;12.300;2022-08-11T09:49:21;2.93;;;2.17;;
3726;SDS011;1879;45.876;12.300;2022-08-11T09:51:49;3.23;;;1.77;;
3726;SDS011;1879;45.876;12.300;2022-08-11T09:54:18;1.97;;;1.77;;
3726;SDS011;1879;45.876;12.300;2022-08-11T09:56:47;3.30;;;1.37;;
3726;SDS011;1879;45.876;12.300;2022-08-11T09:59:34;2.10;;;1.90;;
3726;SDS011;1879;45.876;12.300;2022-08-11T10:02:01;1.87;;;1.77;;
3726;SDS011;1879;45.876;12.300;2022-08-11T10:04:32;3.00;;;1.47;;
3726;SDS011;1879;45.876;12.300;2022-08-11T10:07:04;2.90;;;2.27;;
3726;SDS011;1879;45.876;12.300;2022-08-11T10:09:37;2.20;;;1.77;;
3726;SDS011;1879;45.876;12.300;2022-08-11T10:12:07;4.23;;;1.90;;
3726;SDS011;1879;45.876;12.300;2022-08-11T10:14:40;1.70;;;1.60;;
3726;SDS011;1879;45.876;12.300;2022-08-11T10:17:29;1.80;;;1.70;;
3726;SDS011;1879;45.876;12.300;2022-08-11T10:19:59;12.47;;;2.80;;
3726;SDS011;1879;45.876;12.300;2022-08-11T10:22:28;2.53;;;1.60;;
3726;SDS011;1879;45.876;12.300;2022-08-11T10:25:14;11.50;;;7.40;;
3726;SDS011;1879;45.876;12.300;2022-08-11T10:28:00;4.20;;;2.57;;
3726;SDS011;1879;45.876;12.300;2022-08-11T10:30:29;3.27;;;1.70;;
3726;SDS011;1879;45.876;12.300;2022-08-11T10:33:14;1.80;;;1.53;;
3726;SDS011;1879;45.876;12.300;2022-08-11T10:36:01;2.77;;;2.53;;
3726;SDS011;1879;45.876;12.300;2022-08-11T10:38:30;15.70;;;8.07;;
3726;SDS011;1879;45.876;12.300;2022-08-11T10:41:00;9.83;;;8.93;;
3726;SDS011;1879;45.876;12.300;2022-08-11T10:43:45;2.80;;;2.27;;
3726;SDS011;1879;45.876;12.300;2022-08-11T10:46:12;4.07;;;1.97;;
3726;SDS011;1879;45.876;12.300;2022-08-11T10:48:57;1.87;;;1.77;;
3726;SDS011;1879;45.876;12.300;2022-08-11T10:51:26;2.20;;;2.00;;
3726;SDS011;1879;45.876;12.300;2022-08-11T10:54:10;2.63;;;2.33;;
3726;SDS011;1879;45.876;12.300;2022-08-11T10:56:58;2.17;;;1.90;;
3726;SDS011;1879;45.876;12.300;2022-08-11T10:59:44;3.70;;;2.07;;
3726;SDS011;1879;45.876;12.300;2022-08-11T11:02:12;2.17;;;1.97;;
3726;SDS011;1879;45.876;12.300;2022-08-11T11:04:43;1.87;;;1.73;;
3726;SDS011;1879;45.876;12.300;2022-08-11T11:07:26;2.17;;;1.67;;
3726;SDS011;1879;45.876;12.300;2022-08-11T11:10:01;3.30;;;2.00;;
3726;SDS011;1879;45.876;12.300;2022-08-11T11:12:33;5.70;;;1.90;;
3726;SDS011;1879;45.876;12.300;2022-08-11T11:15:21;1.90;;;1.40;;
3726;SDS011;1879;45.876;12.300;2022-08-11T11:18:08;2.03;;;1.83;;
3726;SDS011;1879;45.876;12.300;2022-08-11T11:20:41;1.77;;;1.67;;
3726;SDS011;1879;45.876;12.300;2022-08-11T11:23:12;1.90;;;1.70;;
3726;SDS011;1879;45.876;12.300;2022-08-11T11:28:49;2.10;;;1.77;;
3726;SDS011;1879;45.876;12.300;2022-08-11T11:31:34;1.90;;;1.47;;
3726;SDS011;1879;45.876;12.300;2022-08-11T11:34:11;1.97;;;1.47;;
3726;SDS011;1879;45.876;12.300;2022-08-11T11:36:47;1.60;;;1.50;;
3726;SDS011;1879;45.876;12.300;2022-08-11T11:39:18;2.63;;;1.60;;
3726;SDS011;1879;45.876;12.300;2022-08-11T11:41:47;1.50;;;1.40;;
3726;SDS011;1879;45.876;12.300;2022-08-11T11:44:17;1.70;;;1.60;;
3726;SDS011;1879;45.876;12.300;2022-08-11T11:46:46;3.90;;;1.60;;
3726;SDS011;1879;45.876;12.300;2022-08-11T11:49:15;1.57;;;1.40;;
3726;SDS011;1879;45.876;12.300;2022-08-11T11:51:44;2.10;;;1.57;;
3726;SDS011;1879;45.876;12.300;2022-08-11T11:54:12;3.30;;;1.50;;
3726;SDS011;1879;45.876;12.300;2022-08-11T11:56:40;1.87;;;1.40;;
3726;SDS011;1879;45.876;12.300;2022-08-11T11:59:10;2.70;;;1.30;;
3726;SDS011;1879;45.876;12.300;2022-08-11T12:01:58;1.77;;;1.67;;
3726;SDS011;1879;45.876;12.300;2022-08-11T12:04:28;1.63;;;1.53;;
3726;SDS011;1879;45.876;12.300;2022-08-11T12:06:55;2.30;;;1.87;;
3726;SDS011;1879;45.876;12.300;2022-08-11T12:09:37;5.00;;;1.70;;
3726;SDS011;1879;45.876;12.300;2022-08-11T12:12:06;2.20;;;1.40;;
3726;SDS011;1879;45.876;12.300;2022-08-11T12:14:51;3.10;;;1.40;;
3726;SDS011;1879;45.876;12.300;2022-08-11T12:17:20;2.67;;;1.43;;
3726;SDS011;1879;45.876;12.300;2022-08-11T12:19:48;4.73;;;1.83;;
3726;SDS011;1879;45.876;12.300;2022-08-11T12:22:16;1.53;;;1.43;;
3726;SDS011;1879;45.876;12.300;2022-08-11T12:25:02;2.80;;;1.30;;
3726;SDS011;1879;45.876;12.300;2022-08-11T12:27:47;1.50;;;1.40;;
3726;SDS011;1879;45.876;12.300;2022-08-11T12:30:15;1.73;;;1.40;;
3726;SDS011;1879;45.876;12.300;2022-08-11T12:32:45;2.40;;;1.40;;
3726;SDS011;1879;45.876;12.300;2022-08-11T12:35:13;4.13;;;1.93;;
3726;SDS011;1879;45.876;12.300;2022-08-11T12:37:43;1.50;;;1.40;;
3726;SDS011;1879;45.876;12.300;2022-08-11T12:40:12;1.70;;;1.50;;
3726;SDS011;1879;45.876;12.300;2022-08-11T12:43:00;1.47;;;1.37;;
3726;SDS011;1879;45.876;12.300;2022-08-11T12:45:47;3.90;;;1.70;;
3726;SDS011;1879;45.876;12.300;2022-08-11T12:48:18;2.00;;;1.30;;
3726;SDS011;1879;45.876;12.300;2022-08-11T12:51:06;2.40;;;1.73;;
3726;SDS011;1879;45.876;12.300;2022-08-11T12:53:53;1.90;;;1.57;;
3726;SDS011;1879;45.876;12.300;2022-08-11T12:56:25;1.80;;;1.47;;
3726;SDS011;1879;45.876;12.300;2022-08-11T12:59:20;3.07;;;1.40;;
3726;SDS011;1879;45.876;12.300;2022-08-11T13:02:06;1.63;;;1.53;;
3726;SDS011;1879;45.876;12.300;2022-08-11T13:04:53;1.73;;;1.60;;
3726;SDS011;1879;45.876;12.300;2022-08-11T13:07:24;4.00;;;1.73;;
3726;SDS011;1879;45.876;12.300;2022-08-11T13:09:51;1.53;;;1.40;;
3726;SDS011;1879;45.876;12.300;2022-08-11T13:12:20;1.50;;;1.40;;
3726;SDS011;1879;45.876;12.300;2022-08-11T13:15:06;1.70;;;1.60;;
3726;SDS011;1879;45.876;12.300;2022-08-11T13:17:36;2.00;;;1.50;;
3726;SDS011;1879;45.876;12.300;2022-08-11T13:20:07;1.50;;;1.37;;
3726;SDS011;1879;45.876;12.300;2022-08-11T13:22:38;1.57;;;1.47;;
3726;SDS011;1879;45.876;12.300;2022-08-11T13:25:10;1.63;;;1.20;;
3726;SDS011;1879;45.876;12.300;2022-08-11T13:27:38;1.80;;;1.70;;
3726;SDS011;1879;45.876;12.300;2022-08-11T13:30:06;1.67;;;1.50;;
3726;SDS011;1879;45.876;12.300;2022-08-11T13:32:51;2.00;;;1.80;;
3726;SDS011;1879;45.876;12.300;2022-08-11T13:35:21;1.60;;;1.50;;
3726;SDS011;1879;45.876;12.300;2022-08-11T13:37:49;2.90;;;1.43;;
3726;SDS011;1879;45.876;12.300;2022-08-11T13:40:17;2.33;;;1.47;;
3726;SDS011;1879;45.876;12.300;2022-08-11T13:42:46;1.90;;;1.80;;
3726;SDS011;1879;45.876;12.300;2022-08-11T13:45:15;1.37;;;1.27;;
3726;SDS011;1879;45.876;12.300;2022-08-11T13:47:42;3.40;;;1.60;;
3726;SDS011;1879;45.876;12.300;2022-08-11T13:50:10;2.03;;;1.80;;
3726;SDS011;1879;45.876;12.300;2022-08-11T13:52:41;1.50;;;1.40;;
3726;SDS011;1879;45.876;12.300;2022-08-11T13:55:09;1.40;;;1.20;;
3726;SDS011;1879;45.876;12.300;2022-08-11T13:57:46;1.77;;;1.40;;
3726;SDS011;1879;45.876;12.300;2022-08-11T14:00:15;1.93;;;1.30;;
3726;SDS011;1879;45.876;12.300;2022-08-11T14:02:43;1.53;;;1.43;;
3726;SDS011;1879;45.876;12.300;2022-08-11T14:05:14;2.20;;;1.60;;
3726;SDS011;1879;45.876;12.300;2022-08-11T14:07:45;1.70;;;1.60;;
3726;SDS011;1879;45.876;12.300;2022-08-11T14:10:16;1.67;;;1.57;;
3726;SDS011;1879;45.876;12.300;2022-08-11T14:12:46;1.60;;;1.50;;
3726;SDS011;1879;45.876;12.300;2022-08-11T14:15:39;1.53;;;1.43;;
3726;SDS011;1879;45.876;12.300;2022-08-11T14:18:11;1.47;;;1.37;;
3726;SDS011;1879;45.876;12.300;2022-08-11T14:20:43;1.93;;;1.60;;
3726;SDS011;1879;45.876;12.300;2022-08-11T14:23:31;1.83;;;1.40;;
3726;SDS011;1879;45.876;12.300;2022-08-11T14:26:04;3.27;;;2.20;;
3726;SDS011;1879;45.876;12.300;2022-08-11T14:28:50;4.73;;;1.70;;
3726;SDS011;1879;45.876;12.300;2022-08-11T14:31:19;1.63;;;1.53;;
3726;SDS011;1879;45.876;12.300;2022-08-11T14:33:49;1.43;;;1.33;;
3726;SDS011;1879;45.876;12.300;2022-08-11T14:36:19;1.60;;;1.50;;
3726;SDS011;1879;45.876;12.300;2022-08-11T14:38:50;2.23;;;1.80;;
3726;SDS011;1879;45.876;12.300;2022-08-11T14:41:19;1.67;;;1.50;;
3726;SDS011;1879;45.876;12.300;2022-08-11T14:44:04;1.60;;;1.50;;
3726;SDS011;1879;45.876;12.300;2022-08-11T14:46:52;22.30;;;8.10;;
3726;SDS011;1879;45.876;12.300;2022-08-11T14:49:33;31.53;;;11.97;;
3726;SDS011;1879;45.876;12.300;2022-08-11T14:52:02;6.60;;;3.97;;
3726;SDS011;1879;45.876;12.300;2022-08-11T14:54:34;2.40;;;2.20;;
3726;SDS011;1879;45.876;12.300;2022-08-11T14:57:20;5.00;;;3.07;;
3726;SDS011;1879;45.876;12.300;2022-08-11T14:59:49;6.20;;;3.33;;
3726;SDS011;1879;45.876;12.300;2022-08-11T15:02:18;12.47;;;5.93;;
3726;SDS011;1879;45.876;12.300;2022-08-11T15:05:03;6.53;;;2.20;;
3726;SDS011;1879;45.876;12.300;2022-08-11T15:07:32;8.30;;;4.00;;
3726;SDS011;1879;45.876;12.300;2022-08-11T15:10:02;1.97;;;1.80;;
3726;SDS011;1879;45.876;12.300;2022-08-11T15:12:30;6.70;;;2.90;;
3726;SDS011;1879;45.876;12.300;2022-08-11T15:14:59;1.70;;;1.60;;
3726;SDS011;1879;45.876;12.300;2022-08-11T15:17:44;4.47;;;2.50;;
3726;SDS011;1879;45.876;12.300;2022-08-11T15:20:13;6.50;;;3.37;;
3726;SDS011;1879;45.876;12.300;2022-08-11T15:23:00;1.40;;;1.30;;
3726;SDS011;1879;45.876;12.300;2022-08-11T15:25:47;4.13;;;2.17;;
3726;SDS011;1879;45.876;12.300;2022-08-11T15:28:18;1.87;;;1.60;;
3726;SDS011;1879;45.876;12.300;2022-08-11T15:31:04;8.90;;;3.67;;
3726;SDS011;1879;45.876;12.300;2022-08-11T15:33:50;4.73;;;2.00;;
3726;SDS011;1879;45.876;12.300;2022-08-11T15:36:37;2.47;;;1.70;;
3726;SDS011;1879;45.876;12.300;2022-08-11T15:39:23;2.27;;;1.53;;
3726;SDS011;1879;45.876;12.300;2022-08-11T15:41:57;2.30;;;1.77;;
3726;SDS011;1879;45.876;12.300;2022-08-11T15:44:46;1.77;;;1.67;;
3726;SDS011;1879;45.876;12.300;2022-08-11T15:47:36;2.70;;;1.87;;
3726;SDS011;1879;45.876;12.300;2022-08-11T15:50:06;2.23;;;1.97;;
3726;SDS011;1879;45.876;12.300;2022-08-11T15:52:40;1.70;;;1.60;;
3726;SDS011;1879;45.876;12.300;2022-08-11T15:55:12;1.70;;;1.60;;
3726;SDS011;1879;45.876;12.300;2022-08-11T15:57:42;2.10;;;1.43;;
3726;SDS011;1879;45.876;12.300;2022-08-11T16:00:29;1.80;;;1.57;;
3726;SDS011;1879;45.876;12.300;2022-08-11T16:03:14;1.57;;;1.47;;
3726;SDS011;1879;45.876;12.300;2022-08-11T16:06:00;3.63;;;1.53;;
3726;SDS011;1879;45.876;12.300;2022-08-11T16:08:27;2.00;;;1.40;;
3726;SDS011;1879;45.876;12.300;2022-08-11T16:10:55;1.47;;;1.37;;
3726;SDS011;1879;45.876;12.300;2022-08-11T16:13:24;3.77;;;1.80;;
3726;SDS011;1879;45.876;12.300;2022-08-11T16:16:09;1.90;;;1.70;;
3726;SDS011;1879;45.876;12.300;2022-08-11T16:18:44;3.40;;;1.50;;
3726;SDS011;1879;45.876;12.300;2022-08-11T16:21:23;1.80;;;1.70;;
3726;SDS011;1879;45.876;12.300;2022-08-11T16:23:53;1.40;;;1.30;;
3726;SDS011;1879;45.876;12.300;2022-08-11T16:26:23;2.90;;;1.37;;
3726;SDS011;1879;45.876;12.300;2022-08-11T16:28:53;1.63;;;1.53;;
3726;SDS011;1879;45.876;12.300;2022-08-11T16:31:23;2.10;;;1.60;;
3726;SDS011;1879;45.876;12.300;2022-08-11T16:33:51;2.03;;;1.70;;
3726;SDS011;1879;45.876;12.300;2022-08-11T16:36:19;1.47;;;1.37;;
3726;SDS011;1879;45.876;12.300;2022-08-11T16:39:07;3.03;;;1.50;;
3726;SDS011;1879;45.876;12.300;2022-08-11T16:41:38;1.63;;;1.40;;
3726;SDS011;1879;45.876;12.300;2022-08-11T16:44:26;1.93;;;1.50;;
3726;SDS011;1879;45.876;12.300;2022-08-11T16:47:13;1.40;;;1.30;;
3726;SDS011;1879;45.876;12.300;2022-08-11T16:49:43;4.00;;;1.37;;
3726;SDS011;1879;45.876;12.300;2022-08-11T16:52:12;3.40;;;1.77;;
3726;SDS011;1879;45.876;12.300;2022-08-11T16:54:41;2.70;;;1.37;;
3726;SDS011;1879;45.876;12.300;2022-08-11T16:57:09;2.77;;;2.30;;
3726;SDS011;1879;45.876;12.300;2022-08-11T17:00:01;2.73;;;1.80;;
3726;SDS011;1879;45.876;12.300;2022-08-11T17:02:32;1.87;;;1.77;;
3726;SDS011;1879;45.876;12.300;2022-08-11T17:05:21;5.80;;;3.90;;
3726;SDS011;1879;45.876;12.300;2022-08-11T17:08:08;12.23;;;6.20;;
3726;SDS011;1879;45.876;12.300;2022-08-11T17:10:55;17.63;;;9.37;;
3726;SDS011;1879;45.876;12.300;2022-08-11T17:13:43;20.37;;;11.97;;
3726;SDS011;1879;45.876;12.300;2022-08-11T17:16:18;9.03;;;5.73;;
3726;SDS011;1879;45.876;12.300;2022-08-11T17:18:50;13.13;;;8.30;;
3726;SDS011;1879;45.876;12.300;2022-08-11T17:21:24;8.80;;;4.93;;
3726;SDS011;1879;45.876;12.300;2022-08-11T17:23:54;8.67;;;4.53;;